Time;durP1;ratioP1;P1;durP2;ratioP2;P2;SDS_P1;SDS_P2;PMS_P1;PMS_P2;Temp;Humidity;BMP_temperature;BMP_pressure;BME280_temperature;BME280_humidity;BME280_pressure;Samples;Min_cycle;Max_cycle;Signal;HPM_P1;HPM_P2
2023/09/29 00:04:23;;;;;;;;;;;16.50;99.90;;;;;;12559144;28;20284;-34
2023/09/29 00:10:34;;;;;;;;;;;16.60;99.90;;;;;;12545430;28;19929;-34
2023/09/29 00:17:13;;;;;;;;;;;16.60;99.90;;;;;;12581674;28;19924;-34
2023/09/29 00:23:36;;;;;;;;;;;16.60;99.90;;;;;;12569331;28;19936;-34
2023/09/29 00:29:57;;;;;;;;;;;16.70;99.90;;;;;;12580216;28;19931;-34
2023/09/29 00:36:21;;;;;;;;;;;16.70;99.90;;;;;;12560086;28;19955;-34
2023/09/29 00:42:39;;;;;;;;;;;16.80;99.90;;;;;;12576278;28;19932;-34
2023/09/29 00:49:04;;;;;;;;;;;17.00;99.90;;;;;;12571614;28;19970;-34
2023/09/29 00:55:28;;;;;;;;;;;17.20;99.90;;;;;;12575419;28;19928;-34
2023/09/29 01:01:42;;;;;;;;;;;17.30;99.90;;;;;;12576435;28;20545;-34
2023/09/29 01:08:08;;;;;;;;;;;17.50;99.90;;;;;;12562026;28;20449;-34
2023/09/29 01:14:18;;;;;;;;;;;17.50;99.90;;;;;;12564142;28;19925;-34
2023/09/29 01:20:34;;;;;;;;;;;17.60;99.90;;;;;;12555869;28;20398;-34
2023/09/29 01:26:40;;;;;;;;;;;17.60;99.90;;;;;;12571806;28;20303;-34
2023/09/29 01:32:51;;;;;;;;;;;17.60;99.90;;;;;;12561142;28;19928;-34
2023/09/29 01:38:53;;;;;;;;;;;17.70;99.90;;;;;;12537523;28;19933;-34
2023/09/29 01:45:05;;;;;;;;;;;17.70;99.90;;;;;;12559977;28;19933;-34
2023/09/29 01:51:30;;;;;;;;;;;17.70;99.90;;;;;;12543001;28;19928;-33
2023/09/29 01:57:37;;;;;;;;;;;17.70;99.90;;;;;;12562657;28;20521;-34
2023/09/29 02:03:55;;;;;;;;;;;17.80;99.90;;;;;;12572747;28;19928;-34
2023/09/29 02:10:26;;;;;;;;;;;17.70;99.90;;;;;;12570542;28;19929;-34
2023/09/29 02:16:50;;;;;;;;;;;17.70;99.90;;;;;;12609778;28;20034;-34
2023/09/29 02:23:00;;;;;;;;;;;17.80;99.90;;;;;;12615230;28;19924;-34
2023/09/29 02:29:21;;;;;;;;;;;17.70;99.90;;;;;;12621369;28;19971;-34
2023/09/29 02:35:51;;;;;;;;;;;17.70;99.90;;;;;;12624117;28;20387;-34
2023/09/29 02:42:10;;;;;;;;;;;17.70;99.90;;;;;;12622539;28;19974;-34
2023/09/29 02:48:32;;;;;;;;;;;17.70;99.90;;;;;;12625830;28;20071;-34
2023/09/29 02:54:55;;;;;;;;;;;17.70;99.90;;;;;;12621697;28;19928;-35
2023/09/29 03:01:49;;;;;;;;;;;17.70;99.90;;;;;;12605123;28;19970;-34
2023/09/29 03:08:18;;;;;;;;;;;17.70;99.90;;;;;;12587065;28;19988;-34
2023/09/29 03:14:39;;;;;;;;;;;17.70;99.90;;;;;;12624807;28;19971;-34
2023/09/29 03:21:09;;;;;;;;;;;17.70;99.90;;;;;;12642221;28;19982;-34
2023/09/29 03:27:44;;;;;;;;;;;17.70;99.90;;;;;;12615390;28;20015;-34
2023/09/29 03:34:16;;;;;;;;;;;17.70;99.90;;;;;;12634248;28;20012;-34
2023/09/29 03:40:50;;;;;;;;;;;17.80;99.90;;;;;;12627077;28;19924;-34
2023/09/29 03:47:24;;;;;;;;;;;17.80;99.90;;;;;;12632611;28;19970;-34
2023/09/29 03:53:58;;;;;;;;;;;17.80;99.90;;;;;;12627490;28;19925;-34
2023/09/29 04:00:26;;;;;;;;;;;17.80;99.90;;;;;;12631120;28;20418;-35
2023/09/29 04:06:53;;;;;;;;;;;17.70;99.90;;;;;;12629131;28;19970;-35
2023/09/29 04:13:20;;;;;;;;;;;17.70;99.90;;;;;;12637804;28;19931;-34
2023/09/29 04:19:56;;;;;;;;;;;17.70;99.90;;;;;;12631034;28;19928;-35
2023/09/29 04:26:31;;;;;;;;;;;17.70;99.90;;;;;;12620494;28;19924;-34
2023/09/29 04:33:04;;;;;;;;;;;17.70;99.90;;;;;;12627559;28;19932;-34
2023/09/29 04:39:29;;;;;;;;;;;17.70;99.90;;;;;;12635063;28;20368;-34
2023/09/29 04:45:43;;;;;;;;;;;17.70;99.90;;;;;;12621915;28;19966;-34
2023/09/29 04:52:04;;;;;;;;;;;17.70;99.90;;;;;;12632783;28;19939;-35
2023/09/29 04:58:19;;;;;;;;;;;17.60;99.90;;;;;;12625032;28;19924;-34
2023/09/29 05:04:43;;;;;;;;;;;17.60;99.90;;;;;;12579459;28;19932;-33
2023/09/29 05:11:04;;;;;;;;;;;17.60;99.90;;;;;;12572016;28;19978;-34
2023/09/29 05:17:25;;;;;;;;;;;17.60;99.90;;;;;;12577622;28;19924;-34
2023/09/29 05:24:06;;;;;;;;;;;17.60;99.90;;;;;;12578715;28;19933;-35
2023/09/29 05:30:29;;;;;;;;;;;17.60;99.90;;;;;;12571465;28;20054;-34
2023/09/29 05:36:57;;;;;;;;;;;17.60;99.90;;;;;;12574642;28;19932;-34
2023/09/29 05:43:26;;;;;;;;;;;17.60;99.90;;;;;;12558607;28;19935;-34
2023/09/29 05:49:44;;;;;;;;;;;17.60;99.90;;;;;;12577805;28;20560;-34
2023/09/29 05:56:26;;;;;;;;;;;17.70;99.90;;;;;;12541885;28;20020;-34
2023/09/29 06:02:51;;;;;;;;;;;17.70;99.90;;;;;;12598555;28;19932;-34
2023/09/29 06:09:06;;;;;;;;;;;17.80;99.90;;;;;;12619868;28;20019;-34
2023/09/29 06:15:25;;;;;;;;;;;17.80;99.90;;;;;;12612730;28;19928;-34
2023/09/29 06:21:51;;;;;;;;;;;17.80;99.90;;;;;;12640026;28;20410;-34
2023/09/29 06:28:14;;;;;;;;;;;17.90;99.90;;;;;;12630908;28;19969;-34
2023/09/29 06:34:42;;;;;;;;;;;17.90;99.90;;;;;;12630827;28;20459;-35
2023/09/29 06:41:12;;;;;;;;;;;17.90;99.90;;;;;;12632358;28;19978;-35
2023/09/29 06:47:47;;;;;;;;;;;17.80;99.90;;;;;;12629435;28;20342;-34
2023/09/29 06:54:14;;;;;;;;;;;17.80;99.90;;;;;;12613570;28;19944;-35
2023/09/29 07:00:38;;;;;;;;;;;17.90;99.90;;;;;;12613846;28;19978;-34
2023/09/29 07:07:02;;;;;;;;;;;17.90;99.90;;;;;;12581137;28;20302;-35
2023/09/29 07:13:29;;;;;;;;;;;18.00;99.90;;;;;;12583670;28;19932;-35
2023/09/29 07:19:47;;;;;;;;;;;18.10;99.90;;;;;;12635675;28;19928;-34
2023/09/29 07:26:07;;;;;;;;;;;18.30;99.90;;;;;;12625674;28;19981;-35
2023/09/29 07:32:29;;;;;;;;;;;18.30;99.90;;;;;;12630617;28;19924;-35
2023/09/29 07:38:58;;;;;;;;;;;18.40;99.90;;;;;;12625829;28;19943;-34
2023/09/29 07:45:12;;;;;;;;;;;18.50;99.90;;;;;;12630191;28;20288;-35
2023/09/29 07:51:32;;;;;;;;;;;18.60;99.90;;;;;;12631071;28;20436;-35
2023/09/29 07:57:51;;;;;;;;;;;18.70;99.90;;;;;;12630876;28;19931;-35
2023/09/29 08:03:59;;;;;;;;;;;18.80;99.90;;;;;;12614090;28;20015;-35
2023/09/29 08:10:15;;;;;;;;;;;18.90;99.90;;;;;;12623699;28;20391;-34
2023/09/29 08:16:34;;;;;;;;;;;18.90;99.90;;;;;;12619340;28;19924;-35
2023/09/29 08:22:51;;;;;;;;;;;18.90;99.90;;;;;;12622985;28;19924;-35
2023/09/29 08:29:16;;;;;;;;;;;19.10;99.90;;;;;;12623082;28;20419;-35
2023/09/29 08:35:34;;;;;;;;;;;19.20;99.90;;;;;;12625472;28;19924;-35
2023/09/29 08:42:01;;;;;;;;;;;19.40;99.90;;;;;;12627533;28;20463;-35
2023/09/29 08:48:34;;;;;;;;;;;19.40;99.90;;;;;;12617423;28;19923;-35
2023/09/29 08:54:53;;;;;;;;;;;19.60;99.90;;;;;;12618083;28;19977;-35
2023/09/29 09:01:05;;;;;;;;;;;19.70;99.90;;;;;;12601718;28;20007;-35
2023/09/29 09:07:31;;;;;;;;;;;19.90;99.90;;;;;;12566163;28;19931;-35
2023/09/29 09:14:09;;;;;;;;;;;19.90;99.90;;;;;;12618500;28;20483;-35
2023/09/29 09:20:34;;;;;;;;;;;20.10;99.90;;;;;;12620506;28;19928;-35
2023/09/29 09:26:50;;;;;;;;;;;20.60;97.30;;;;;;12624239;28;19939;-35
2023/09/29 09:33:11;;;;;;;;;;;20.80;99.90;;;;;;12607272;28;19935;-35
2023/09/29 09:39:38;;;;;;;;;;;20.60;87.10;;;;;;12622902;28;19947;-35
2023/09/29 09:46:12;;;;;;;;;;;21.00;77.30;;;;;;12599360;28;19931;-35
2023/09/29 09:52:29;;;;;;;;;;;21.00;83.00;;;;;;12607077;28;19928;-36
2023/09/29 09:58:32;;;;;;;;;;;21.20;85.40;;;;;;12619257;28;19928;-35
2023/09/29 10:04:39;;;;;;;;;;;21.30;76.50;;;;;;12562341;28;19924;-35
2023/09/29 10:10:55;;;;;;;;;;;21.40;67.40;;;;;;12565171;28;19928;-35
2023/09/29 10:17:12;;;;;;;;;;;21.30;56.30;;;;;;12570240;28;20348;-35
2023/09/29 10:23:26;;;;;;;;;;;21.20;90.70;;;;;;12571924;28;20334;-34
2023/09/29 10:29:40;;;;;;;;;;;21.70;84.30;;;;;;12565709;28;19929;-35
2023/09/29 10:36:05;;;;;;;;;;;22.40;28.10;;;;;;12574445;28;19950;-34
2023/09/29 10:42:17;;;;;;;;;;;22.90;25.90;;;;;;12572861;28;20274;-35
2023/09/29 10:48:26;;;;;;;;;;;22.90;19.40;;;;;;12568349;28;19939;-35
2023/09/29 10:54:43;;;;;;;;;;;22.90;30.70;;;;;;12572585;28;19928;-35
2023/09/29 11:00:55;;;;;;;;;;;22.60;43.70;;;;;;12564705;28;19928;-35
2023/09/29 11:07:08;;;;;;;;;;;22.40;60.30;;;;;;12565792;28;19925;-35
2023/09/29 11:13:23;;;;;;;;;;;22.30;76.90;;;;;;12576224;28;19924;-35
2023/09/29 11:19:41;;;;;;;;;;;22.20;80.20;;;;;;12568842;28;19935;-34
2023/09/29 11:26:06;;;;;;;;;;;22.00;99.90;;;;;;12583166;28;19928;-34
2023/09/29 11:32:18;;;;;;;;;;;22.00;99.90;;;;;;12605425;28;20015;-34
2023/09/29 11:38:36;;;;;;;;;;;22.10;94.30;;;;;;12627616;28;20484;-35
2023/09/29 11:44:49;;;;;;;;;;;22.20;94.60;;;;;;12631170;28;19928;-35
2023/09/29 11:51:05;;;;;;;;;;;22.40;78.50;;;;;;12628843;28;19931;-35
2023/09/29 11:57:14;;;;;;;;;;;22.50;61.50;;;;;;12626536;28;20399;-35
2023/09/29 12:03:29;;;;;;;;;;;22.50;51.70;;;;;;12577886;28;19928;-35
2023/09/29 12:09:40;;;;;;;;;;;22.90;26.60;;;;;;12569073;28;19924;-35
2023/09/29 12:15:55;;;;;;;;;;;23.50;10.30;;;;;;12568178;28;20296;-35
2023/09/29 12:22:05;;;;;;;;;;;23.70;1.00;;;;;;12573992;28;19932;-35
2023/09/29 12:28:24;;;;;;;;;;;23.30;1.00;;;;;;12577894;28;19925;-34
2023/09/29 12:34:41;;;;;;;;;;;22.90;14.50;;;;;;12569294;28;20415;-34
2023/09/29 12:40:51;;;;;;;;;;;22.50;39.00;;;;;;12568813;28;20405;-35
2023/09/29 12:47:03;;;;;;;;;;;22.10;53.50;;;;;;12570074;28;20039;-35
2023/09/29 12:53:16;;;;;;;;;;;21.90;54.30;;;;;;12566215;28;20300;-36
2023/09/29 12:59:25;;;;;;;;;;;21.80;48.80;;;;;;12567212;28;19932;-35
2023/09/29 13:05:31;;;;;;;;;;;22.00;58.80;;;;;;12558767;28;20376;-36
2023/09/29 13:11:45;;;;;;;;;;;22.40;50.00;;;;;;12567043;28;19932;-35
2023/09/29 13:17:55;;;;;;;;;;;22.50;27.50;;;;;;12566127;28;19928;-36
2023/09/29 13:23:57;;;;;;;;;;;22.70;25.60;;;;;;12565963;28;20281;-35
2023/09/29 13:30:02;;;;;;;;;;;22.80;1.00;;;;;;12553570;28;20352;-36
2023/09/29 13:36:11;;;;;;;;;;;22.60;6.80;;;;;;12567431;28;19932;-35
2023/09/29 13:42:14;;;;;;;;;;;22.60;1.00;;;;;;12563226;28;19960;-35
2023/09/29 13:48:23;;;;;;;;;;;23.00;8.80;;;;;;12619505;28;20062;-35
2023/09/29 13:54:31;;;;;;;;;;;22.80;1.00;;;;;;12595965;28;19923;-35
2023/09/29 14:00:40;;;;;;;;;;;22.60;1.00;;;;;;12586368;28;19929;-35
2023/09/29 14:06:56;;;;;;;;;;;22.70;1.00;;;;;;12564188;28;19931;-35
2023/09/29 14:13:09;;;;;;;;;;;22.70;1.00;;;;;;12616485;28;20015;-35
2023/09/29 14:19:17;;;;;;;;;;;22.80;1.00;;;;;;12607747;28;19924;-35
2023/09/29 14:25:30;;;;;;;;;;;22.70;1.00;;;;;;12612723;28;19928;-36
2023/09/29 14:31:40;;;;;;;;;;;22.60;1.00;;;;;;12598754;28;19932;-35
2023/09/29 14:37:42;;;;;;;;;;;22.40;1.00;;;;;;12618088;28;20098;-35
2023/09/29 14:43:55;;;;;;;;;;;22.20;1.00;;;;;;12626102;28;19939;-36
2023/09/29 14:50:09;;;;;;;;;;;22.10;1.00;;;;;;12623686;28;19928;-36
2023/09/29 14:56:22;;;;;;;;;;;22.00;1.00;;;;;;12625581;28;19931;-35
2023/09/29 15:02:32;;;;;;;;;;;22.00;1.00;;;;;;12603225;28;19951;-35
2023/09/29 15:08:34;;;;;;;;;;;21.90;1.00;;;;;;12609230;28;19971;-35
2023/09/29 15:14:41;;;;;;;;;;;21.80;19.00;;;;;;12613044;28;19963;-35
2023/09/29 15:21:00;;;;;;;;;;;21.70;12.60;;;;;;12633921;28;19959;-35
2023/09/29 15:27:17;;;;;;;;;;;21.60;15.20;;;;;;12630133;28;20307;-35
2023/09/29 15:33:38;;;;;;;;;;;21.50;17.10;;;;;;12630520;28;19974;-35
2023/09/29 15:39:55;;;;;;;;;;;21.40;31.00;;;;;;12623767;28;20040;-35
2023/09/29 15:46:10;;;;;;;;;;;21.30;30.00;;;;;;12630498;28;19931;-35
2023/09/29 15:52:29;;;;;;;;;;;21.30;28.50;;;;;;12608973;28;19929;-35
2023/09/29 15:58:42;;;;;;;;;;;21.20;29.60;;;;;;12607622;28;19948;-35
2023/09/29 16:04:58;;;;;;;;;;;21.20;28.60;;;;;;12572593;28;19932;-35
2023/09/29 16:11:20;;;;;;;;;;;21.10;55.40;;;;;;12553240;28;20023;-35
2023/09/29 16:17:42;;;;;;;;;;;19.90;99.90;;;;;;12573923;28;19943;-35
2023/09/29 16:23:58;;;;;;;;;;;19.40;99.90;;;;;;12568376;28;19974;-36
2023/09/29 16:30:13;;;;;;;;;;;19.20;99.90;;;;;;12566351;28;19924;-35
2023/09/29 16:36:32;;;;;;;;;;;19.10;99.90;;;;;;12566422;28;20431;-35
2023/09/29 16:42:44;;;;;;;;;;;18.90;99.90;;;;;;12565881;28;19925;-35
2023/09/29 16:49:03;;;;;;;;;;;18.80;99.90;;;;;;12571736;28;19932;-35
2023/09/29 16:55:11;;;;;;;;;;;18.60;99.90;;;;;;12569625;28;20292;-35
2023/09/29 17:01:28;;;;;;;;;;;18.50;99.90;;;;;;12567097;28;19924;-35
2023/09/29 17:07:53;;;;;;;;;;;18.10;99.90;;;;;;12577871;28;20000;-35
2023/09/29 17:14:18;;;;;;;;;;;17.90;99.90;;;;;;12580113;28;19945;-35
2023/09/29 17:20:46;;;;;;;;;;;17.90;99.90;;;;;;12566838;28;19982;-35
2023/09/29 17:27:13;;;;;;;;;;;17.70;99.90;;;;;;12574434;28;19959;-35
2023/09/29 17:33:34;;;;;;;;;;;17.40;99.90;;;;;;12559032;28;19924;-35
2023/09/29 17:39:53;;;;;;;;;;;17.30;99.90;;;;;;12571359;28;19959;-35
2023/09/29 17:46:27;;;;;;;;;;;17.30;99.90;;;;;;12567990;28;19932;-34
2023/09/29 17:52:57;;;;;;;;;;;17.10;99.90;;;;;;12570621;28;19924;-35
2023/09/29 17:59:18;;;;;;;;;;;17.10;99.90;;;;;;12566645;28;20121;-35
2023/09/29 18:05:46;;;;;;;;;;;17.20;99.90;;;;;;12521628;28;20020;-35
2023/09/29 18:12:16;;;;;;;;;;;17.20;99.90;;;;;;12507712;28;19975;-35
2023/09/29 18:18:46;;;;;;;;;;;17.00;99.90;;;;;;12522485;28;19925;-35
2023/09/29 18:25:07;;;;;;;;;;;16.90;99.90;;;;;;12531002;28;20430;-35
2023/09/29 18:31:37;;;;;;;;;;;16.80;99.90;;;;;;12510846;28;19933;-35
2023/09/29 18:38:10;;;;;;;;;;;16.90;99.90;;;;;;12528141;28;20358;-35
2023/09/29 18:44:24;;;;;;;;;;;16.70;99.90;;;;;;12527552;28;19925;-34
2023/09/29 18:50:38;;;;;;;;;;;16.80;99.90;;;;;;12529187;28;20514;-35
2023/09/29 18:57:03;;;;;;;;;;;16.70;99.90;;;;;;12518724;28;19925;-35
2023/09/29 19:03:19;;;;;;;;;;;16.60;99.90;;;;;;12561790;28;20396;-34
2023/09/29 19:09:25;;;;;;;;;;;16.60;99.90;;;;;;12578347;28;20339;-35
2023/09/29 19:15:39;;;;;;;;;;;16.40;99.90;;;;;;12562179;28;19924;-35
2023/09/29 19:22:09;;;;;;;;;;;16.30;99.90;;;;;;12582123;28;20283;-34
2023/09/29 19:28:47;;;;;;;;;;;16.20;99.90;;;;;;12577901;28;20388;-35
2023/09/29 19:35:20;;;;;;;;;;;16.40;99.90;;;;;;12582901;28;19933;-35
2023/09/29 19:41:44;;;;;;;;;;;16.30;99.90;;;;;;12572173;28;20278;-34
2023/09/29 19:48:11;;;;;;;;;;;16.20;99.90;;;;;;12570049;28;20402;-34
2023/09/29 19:54:42;;;;;;;;;;;16.10;99.90;;;;;;12558244;28;19924;-34
2023/09/29 20:01:16;;;;;;;;;;;16.00;99.90;;;;;;12575715;28;20337;-34
2023/09/29 20:07:43;;;;;;;;;;;15.90;99.90;;;;;;12573512;28;19942;-34
2023/09/29 20:13:53;;;;;;;;;;;15.90;99.90;;;;;;12573228;28;19936;-34
2023/09/29 20:20:02;;;;;;;;;;;16.00;99.90;;;;;;12546823;28;19978;-35
2023/09/29 20:26:45;;;;;;;;;;;15.70;99.90;;;;;;12572907;28;19928;-34
2023/09/29 20:33:07;;;;;;;;;;;15.50;99.90;;;;;;12570630;28;19933;-34
2023/09/29 20:39:26;;;;;;;;;;;15.40;99.90;;;;;;12573233;28;20364;-34
2023/09/29 20:46:00;;;;;;;;;;;15.20;99.90;;;;;;12558993;28;20292;-34
2023/09/29 20:52:15;;;;;;;;;;;15.00;99.90;;;;;;12569015;28;19951;-34
2023/09/29 20:58:39;;;;;;;;;;;15.10;99.90;;;;;;12567691;28;19928;-34
2023/09/29 21:05:08;;;;;;;;;;;15.00;99.90;;;;;;12555480;28;19975;-34
2023/09/29 21:11:29;;;;;;;;;;;14.90;99.90;;;;;;12567790;28;19925;-34
2023/09/29 21:17:52;;;;;;;;;;;14.80;99.90;;;;;;12569209;28;20494;-34
2023/09/29 21:24:10;;;;;;;;;;;14.80;99.90;;;;;;12567132;28;20304;-34
2023/09/29 21:30:34;;;;;;;;;;;14.90;99.90;;;;;;12570732;28;19998;-34
2023/09/29 21:36:45;;;;;;;;;;;14.70;99.90;;;;;;12551035;28;19928;-33
2023/09/29 21:42:56;;;;;;;;;;;14.80;99.90;;;;;;12570222;28;20019;-34
2023/09/29 21:49:22;;;;;;;;;;;14.80;99.90;;;;;;12554958;28;20418;-34
2023/09/29 21:55:39;;;;;;;;;;;14.80;99.90;;;;;;12565101;28;19936;-34
2023/09/29 22:01:52;;;;;;;;;;;15.00;99.90;;;;;;12565186;28;19929;-34
2023/09/29 22:08:09;;;;;;;;;;;15.20;99.90;;;;;;12565471;28;20305;-33
2023/09/29 22:14:18;;;;;;;;;;;15.30;99.90;;;;;;12557819;28;19932;-34
2023/09/29 22:20:29;;;;;;;;;;;15.40;99.90;;;;;;12555603;28;19939;-34
2023/09/29 22:26:42;;;;;;;;;;;15.30;99.90;;;;;;12557660;28;19956;-34
2023/09/29 22:32:56;;;;;;;;;;;15.20;99.90;;;;;;12552866;28;19924;-33
2023/09/29 22:39:03;;;;;;;;;;;15.20;99.90;;;;;;12552589;28;19928;-34
2023/09/29 22:45:14;;;;;;;;;;;15.10;99.90;;;;;;12548988;28;19933;-34
2023/09/29 22:51:26;;;;;;;;;;;15.00;99.90;;;;;;12547330;28;19936;-34
2023/09/29 22:57:47;;;;;;;;;;;14.90;99.90;;;;;;12556674;28;19932;-34
2023/09/29 23:04:05;;;;;;;;;;;14.80;99.90;;;;;;12558723;28;19972;-34
2023/09/29 23:10:24;;;;;;;;;;;14.70;99.90;;;;;;12574026;28;19990;-34
2023/09/29 23:16:44;;;;;;;;;;;14.70;99.90;;;;;;12568313;28;19960;-34
2023/09/29 23:23:18;;;;;;;;;;;14.60;99.90;;;;;;12561857;28;20293;-33
2023/09/29 23:29:33;;;;;;;;;;;14.50;99.90;;;;;;12565058;28;20342;-34
2023/09/29 23:35:47;;;;;;;;;;;14.40;99.90;;;;;;12556435;28;19928;-34
2023/09/29 23:42:14;;;;;;;;;;;14.40;99.90;;;;;;12566040;28;20023;-34
2023/09/29 23:48:31;;;;;;;;;;;14.50;99.90;;;;;;12570595;28;19955;-34
2023/09/29 23:54:48;;;;;;;;;;;14.50;99.90;;;;;;12566404;28;19975;-34
